sensor_id;sensor_type;location;lat;lon;timestamp;P1;durP1;ratioP1;P2;durP2;ratioP2
19436;SDS011;9854;50.968;4.168;2022-10-26T00:00:01;14.98;;;3.55;;
19436;SDS011;9854;50.968;4.168;2022-10-26T00:02:29;7.57;;;3.40;;
19436;SDS011;9854;50.968;4.168;2022-10-26T00:04:54;12.55;;;3.67;;
19436;SDS011;9854;50.968;4.168;2022-10-26T00:07:20;5.30;;;2.53;;
19436;SDS011;9854;50.968;4.168;2022-10-26T00:09:45;8.43;;;3.10;;
19436;SDS011;9854;50.968;4.168;2022-10-26T00:12:11;6.15;;;2.80;;
19436;SDS011;9854;50.968;4.168;2022-10-26T00:14:36;18.65;;;3.63;;
19436;SDS011;9854;50.968;4.168;2022-10-26T00:17:02;8.38;;;2.60;;
19436;SDS011;9854;50.968;4.168;2022-10-26T00:19:28;8.80;;;2.92;;
19436;SDS011;9854;50.968;4.168;2022-10-26T00:21:53;7.72;;;2.65;;
19436;SDS011;9854;50.968;4.168;2022-10-26T00:24:19;7.40;;;2.35;;
19436;SDS011;9854;50.968;4.168;2022-10-26T00:26:44;5.45;;;2.20;;
19436;SDS011;9854;50.968;4.168;2022-10-26T00:29:11;6.68;;;2.08;;
19436;SDS011;9854;50.968;4.168;2022-10-26T00:31:37;9.63;;;2.08;;
19436;SDS011;9854;50.968;4.168;2022-10-26T00:34:03;7.50;;;2.10;;
19436;SDS011;9854;50.968;4.168;2022-10-26T00:36:29;5.88;;;1.67;;
19436;SDS011;9854;50.968;4.168;2022-10-26T00:38:55;7.40;;;1.88;;
19436;SDS011;9854;50.968;4.168;2022-10-26T00:41:23;11.68;;;1.98;;
19436;SDS011;9854;50.968;4.168;2022-10-26T00:43:50;6.07;;;2.08;;
19436;SDS011;9854;50.968;4.168;2022-10-26T00:46:33;7.38;;;2.03;;
19436;SDS011;9854;50.968;4.168;2022-10-26T00:49:03;6.25;;;1.85;;
19436;SDS011;9854;50.968;4.168;2022-10-26T00:51:35;6.40;;;2.40;;
19436;SDS011;9854;50.968;4.168;2022-10-26T00:54:06;9.60;;;1.70;;
19436;SDS011;9854;50.968;4.168;2022-10-26T00:56:35;6.25;;;1.52;;
19436;SDS011;9854;50.968;4.168;2022-10-26T00:59:04;4.95;;;1.67;;
19436;SDS011;9854;50.968;4.168;2022-10-26T01:01:33;4.47;;;1.73;;
19436;SDS011;9854;50.968;4.168;2022-10-26T01:04:01;6.55;;;1.70;;
19436;SDS011;9854;50.968;4.168;2022-10-26T01:06:28;3.08;;;1.50;;
19436;SDS011;9854;50.968;4.168;2022-10-26T01:08:55;5.03;;;2.17;;
19436;SDS011;9854;50.968;4.168;2022-10-26T01:11:21;8.90;;;1.92;;
19436;SDS011;9854;50.968;4.168;2022-10-26T01:13:47;7.63;;;2.15;;
19436;SDS011;9854;50.968;4.168;2022-10-26T01:16:20;12.32;;;1.83;;
19436;SDS011;9854;50.968;4.168;2022-10-26T01:21:59;7.32;;;1.88;;
19436;SDS011;9854;50.968;4.168;2022-10-26T01:27:08;2.97;;;1.50;;
19436;SDS011;9854;50.968;4.168;2022-10-26T01:35:27;8.52;;;2.00;;
19436;SDS011;9854;50.968;4.168;2022-10-26T01:38:02;6.30;;;1.73;;
19436;SDS011;9854;50.968;4.168;2022-10-26T01:40:37;6.18;;;2.10;;
19436;SDS011;9854;50.968;4.168;2022-10-26T01:43:09;7.80;;;1.77;;
19436;SDS011;9854;50.968;4.168;2022-10-26T01:45:38;5.63;;;1.70;;
19436;SDS011;9854;50.968;4.168;2022-10-26T01:48:06;5.68;;;1.80;;
19436;SDS011;9854;50.968;4.168;2022-10-26T01:50:36;8.35;;;2.28;;
19436;SDS011;9854;50.968;4.168;2022-10-26T01:53:04;4.20;;;1.75;;
19436;SDS011;9854;50.968;4.168;2022-10-26T02:00:53;8.13;;;2.00;;
19436;SDS011;9854;50.968;4.168;2022-10-26T02:14:10;6.53;;;1.75;;
19436;SDS011;9854;50.968;4.168;2022-10-26T02:19:09;3.33;;;1.60;;
19436;SDS011;9854;50.968;4.168;2022-10-26T02:21:45;7.00;;;1.95;;
19436;SDS011;9854;50.968;4.168;2022-10-26T02:24:16;6.25;;;1.60;;
19436;SDS011;9854;50.968;4.168;2022-10-26T02:26:43;3.53;;;1.60;;
19436;SDS011;9854;50.968;4.168;2022-10-26T02:29:12;9.52;;;1.52;;
19436;SDS011;9854;50.968;4.168;2022-10-26T02:31:42;5.88;;;1.67;;
19436;SDS011;9854;50.968;4.168;2022-10-26T02:34:11;6.07;;;1.60;;
19436;SDS011;9854;50.968;4.168;2022-10-26T02:36:41;8.50;;;1.58;;
19436;SDS011;9854;50.968;4.168;2022-10-26T02:39:11;6.25;;;1.48;;
19436;SDS011;9854;50.968;4.168;2022-10-26T02:41:40;3.85;;;1.95;;
19436;SDS011;9854;50.968;4.168;2022-10-26T02:44:10;4.18;;;1.80;;
19436;SDS011;9854;50.968;4.168;2022-10-26T02:46:41;2.78;;;1.45;;
19436;SDS011;9854;50.968;4.168;2022-10-26T02:49:07;7.65;;;1.95;;
19436;SDS011;9854;50.968;4.168;2022-10-26T02:51:35;4.22;;;1.83;;
19436;SDS011;9854;50.968;4.168;2022-10-26T02:56:47;4.80;;;1.38;;
19436;SDS011;9854;50.968;4.168;2022-10-26T02:59:20;4.18;;;1.75;;
19436;SDS011;9854;50.968;4.168;2022-10-26T03:01:49;4.22;;;1.45;;
19436;SDS011;9854;50.968;4.168;2022-10-26T03:04:16;5.55;;;1.75;;
19436;SDS011;9854;50.968;4.168;2022-10-26T03:06:41;4.15;;;1.45;;
19436;SDS011;9854;50.968;4.168;2022-10-26T03:09:15;9.63;;;1.88;;
19436;SDS011;9854;50.968;4.168;2022-10-26T03:11:40;7.00;;;1.88;;
19436;SDS011;9854;50.968;4.168;2022-10-26T03:14:06;6.40;;;1.73;;
19436;SDS011;9854;50.968;4.168;2022-10-26T03:16:32;4.38;;;1.80;;
19436;SDS011;9854;50.968;4.168;2022-10-26T03:18:57;7.90;;;1.70;;
19436;SDS011;9854;50.968;4.168;2022-10-26T03:21:23;4.10;;;1.50;;
19436;SDS011;9854;50.968;4.168;2022-10-26T03:23:48;4.93;;;1.67;;
19436;SDS011;9854;50.968;4.168;2022-10-26T03:26:14;6.07;;;2.00;;
19436;SDS011;9854;50.968;4.168;2022-10-26T03:28:40;2.90;;;1.42;;
19436;SDS011;9854;50.968;4.168;2022-10-26T03:31:05;6.43;;;1.52;;
19436;SDS011;9854;50.968;4.168;2022-10-26T03:33:31;3.20;;;1.40;;
19436;SDS011;9854;50.968;4.168;2022-10-26T03:35:57;11.07;;;1.60;;
19436;SDS011;9854;50.968;4.168;2022-10-26T03:38:22;7.40;;;1.83;;
19436;SDS011;9854;50.968;4.168;2022-10-26T03:40:48;4.90;;;1.88;;
19436;SDS011;9854;50.968;4.168;2022-10-26T03:43:14;4.22;;;1.98;;
19436;SDS011;9854;50.968;4.168;2022-10-26T03:45:39;5.10;;;2.03;;
19436;SDS011;9854;50.968;4.168;2022-10-26T03:48:05;4.45;;;1.95;;
19436;SDS011;9854;50.968;4.168;2022-10-26T03:50:31;8.70;;;2.00;;
19436;SDS011;9854;50.968;4.168;2022-10-26T03:52:56;6.20;;;1.90;;
19436;SDS011;9854;50.968;4.168;2022-10-26T03:55:22;6.35;;;1.90;;
19436;SDS011;9854;50.968;4.168;2022-10-26T03:57:47;7.78;;;1.92;;
19436;SDS011;9854;50.968;4.168;2022-10-26T04:00:14;9.52;;;2.10;;
19436;SDS011;9854;50.968;4.168;2022-10-26T04:02:44;9.65;;;1.98;;
19436;SDS011;9854;50.968;4.168;2022-10-26T04:05:17;4.65;;;2.10;;
19436;SDS011;9854;50.968;4.168;2022-10-26T04:07:42;9.75;;;2.22;;
19436;SDS011;9854;50.968;4.168;2022-10-26T04:10:08;7.57;;;2.15;;
19436;SDS011;9854;50.968;4.168;2022-10-26T04:12:37;4.35;;;1.85;;
19436;SDS011;9854;50.968;4.168;2022-10-26T04:15:03;6.20;;;2.15;;
19436;SDS011;9854;50.968;4.168;2022-10-26T04:17:30;4.78;;;2.13;;
19436;SDS011;9854;50.968;4.168;2022-10-26T04:19:56;9.43;;;1.70;;
19436;SDS011;9854;50.968;4.168;2022-10-26T04:22:22;6.47;;;2.20;;
19436;SDS011;9854;50.968;4.168;2022-10-26T04:24:47;5.00;;;1.90;;
19436;SDS011;9854;50.968;4.168;2022-10-26T04:27:14;6.13;;;2.00;;
19436;SDS011;9854;50.968;4.168;2022-10-26T04:29:39;12.73;;;2.17;;
19436;SDS011;9854;50.968;4.168;2022-10-26T04:32:05;4.28;;;1.90;;
19436;SDS011;9854;50.968;4.168;2022-10-26T04:34:31;6.35;;;1.92;;
19436;SDS011;9854;50.968;4.168;2022-10-26T04:36:57;3.47;;;1.50;;
19436;SDS011;9854;50.968;4.168;2022-10-26T04:39:22;6.53;;;1.88;;
19436;SDS011;9854;50.968;4.168;2022-10-26T04:41:48;4.57;;;1.60;;
19436;SDS011;9854;50.968;4.168;2022-10-26T04:44:14;9.02;;;2.15;;
19436;SDS011;9854;50.968;4.168;2022-10-26T04:46:39;8.07;;;1.75;;
19436;SDS011;9854;50.968;4.168;2022-10-26T04:49:05;7.18;;;1.90;;
19436;SDS011;9854;50.968;4.168;2022-10-26T04:51:31;6.40;;;1.60;;
19436;SDS011;9854;50.968;4.168;2022-10-26T04:53:56;6.60;;;1.70;;
19436;SDS011;9854;50.968;4.168;2022-10-26T04:56:22;5.40;;;2.00;;
19436;SDS011;9854;50.968;4.168;2022-10-26T04:58:47;5.07;;;1.77;;
19436;SDS011;9854;50.968;4.168;2022-10-26T05:01:13;4.83;;;2.03;;
19436;SDS011;9854;50.968;4.168;2022-10-26T05:03:39;5.63;;;1.67;;
19436;SDS011;9854;50.968;4.168;2022-10-26T05:06:04;6.55;;;1.95;;
19436;SDS011;9854;50.968;4.168;2022-10-26T05:08:30;14.68;;;2.00;;
19436;SDS011;9854;50.968;4.168;2022-10-26T05:10:56;10.48;;;2.13;;
19436;SDS011;9854;50.968;4.168;2022-10-26T05:13:21;5.55;;;2.50;;
19436;SDS011;9854;50.968;4.168;2022-10-26T05:15:51;11.13;;;5.22;;
19436;SDS011;9854;50.968;4.168;2022-10-26T05:18:18;8.85;;;3.28;;
19436;SDS011;9854;50.968;4.168;2022-10-26T05:20:43;13.00;;;7.85;;
19436;SDS011;9854;50.968;4.168;2022-10-26T05:23:09;6.75;;;2.97;;
19436;SDS011;9854;50.968;4.168;2022-10-26T05:25:36;12.10;;;3.33;;
19436;SDS011;9854;50.968;4.168;2022-10-26T05:28:03;12.93;;;4.80;;
19436;SDS011;9854;50.968;4.168;2022-10-26T05:30:32;7.97;;;4.47;;
19436;SDS011;9854;50.968;4.168;2022-10-26T05:32:59;6.30;;;2.50;;
19436;SDS011;9854;50.968;4.168;2022-10-26T05:35:27;8.88;;;2.10;;
19436;SDS011;9854;50.968;4.168;2022-10-26T05:37:53;5.00;;;1.80;;
19436;SDS011;9854;50.968;4.168;2022-10-26T05:40:19;5.80;;;2.75;;
19436;SDS011;9854;50.968;4.168;2022-10-26T05:42:44;4.90;;;2.35;;
19436;SDS011;9854;50.968;4.168;2022-10-26T05:45:10;10.48;;;1.77;;
19436;SDS011;9854;50.968;4.168;2022-10-26T05:47:40;5.35;;;1.52;;
19436;SDS011;9854;50.968;4.168;2022-10-26T05:50:06;7.97;;;2.08;;
19436;SDS011;9854;50.968;4.168;2022-10-26T05:55:05;10.18;;;1.80;;
19436;SDS011;9854;50.968;4.168;2022-10-26T05:57:35;3.63;;;1.55;;
19436;SDS011;9854;50.968;4.168;2022-10-26T06:00:05;9.98;;;1.80;;
19436;SDS011;9854;50.968;4.168;2022-10-26T06:02:35;3.10;;;1.60;;
19436;SDS011;9854;50.968;4.168;2022-10-26T06:05:14;5.05;;;1.73;;
19436;SDS011;9854;50.968;4.168;2022-10-26T06:07:45;5.63;;;1.88;;
19436;SDS011;9854;50.968;4.168;2022-10-26T06:10:11;10.07;;;2.20;;
19436;SDS011;9854;50.968;4.168;2022-10-26T06:12:37;6.60;;;2.08;;
19436;SDS011;9854;50.968;4.168;2022-10-26T06:15:03;5.65;;;2.28;;
19436;SDS011;9854;50.968;4.168;2022-10-26T06:17:45;11.60;;;2.33;;
19436;SDS011;9854;50.968;4.168;2022-10-26T06:20:57;5.07;;;1.83;;
19436;SDS011;9854;50.968;4.168;2022-10-26T06:23:37;6.35;;;2.20;;
19436;SDS011;9854;50.968;4.168;2022-10-26T06:28:57;6.68;;;2.10;;
19436;SDS011;9854;50.968;4.168;2022-10-26T06:31:35;6.43;;;1.98;;
19436;SDS011;9854;50.968;4.168;2022-10-26T06:34:01;11.57;;;2.72;;
19436;SDS011;9854;50.968;4.168;2022-10-26T06:36:27;8.48;;;2.25;;
19436;SDS011;9854;50.968;4.168;2022-10-26T06:39:04;9.05;;;2.33;;
19436;SDS011;9854;50.968;4.168;2022-10-26T06:41:32;9.68;;;2.45;;
19436;SDS011;9854;50.968;4.168;2022-10-26T06:43:59;5.53;;;1.88;;
19436;SDS011;9854;50.968;4.168;2022-10-26T06:51:27;6.43;;;1.98;;
19436;SDS011;9854;50.968;4.168;2022-10-26T06:56:32;9.13;;;2.40;;
19436;SDS011;9854;50.968;4.168;2022-10-26T06:59:08;6.35;;;2.17;;
19436;SDS011;9854;50.968;4.168;2022-10-26T07:01:40;9.07;;;2.25;;
19436;SDS011;9854;50.968;4.168;2022-10-26T07:04:06;11.45;;;2.35;;
19436;SDS011;9854;50.968;4.168;2022-10-26T07:06:31;10.05;;;2.88;;
19436;SDS011;9854;50.968;4.168;2022-10-26T07:08:57;6.03;;;2.17;;
19436;SDS011;9854;50.968;4.168;2022-10-26T07:11:23;7.20;;;2.20;;
19436;SDS011;9854;50.968;4.168;2022-10-26T07:13:48;5.07;;;1.90;;
19436;SDS011;9854;50.968;4.168;2022-10-26T07:16:15;5.75;;;2.25;;
19436;SDS011;9854;50.968;4.168;2022-10-26T07:18:41;6.40;;;2.40;;
19436;SDS011;9854;50.968;4.168;2022-10-26T07:21:07;13.95;;;2.33;;
19436;SDS011;9854;50.968;4.168;2022-10-26T07:23:32;8.90;;;2.40;;
19436;SDS011;9854;50.968;4.168;2022-10-26T07:25:58;4.03;;;1.92;;
19436;SDS011;9854;50.968;4.168;2022-10-26T07:28:24;7.15;;;2.60;;
19436;SDS011;9854;50.968;4.168;2022-10-26T07:30:50;4.88;;;1.75;;
19436;SDS011;9854;50.968;4.168;2022-10-26T07:33:15;7.05;;;2.45;;
19436;SDS011;9854;50.968;4.168;2022-10-26T07:35:41;8.63;;;2.35;;
19436;SDS011;9854;50.968;4.168;2022-10-26T07:38:07;7.78;;;2.33;;
19436;SDS011;9854;50.968;4.168;2022-10-26T07:40:34;7.97;;;2.03;;
19436;SDS011;9854;50.968;4.168;2022-10-26T07:43:01;9.70;;;2.40;;
19436;SDS011;9854;50.968;4.168;2022-10-26T07:45:27;5.05;;;2.30;;
19436;SDS011;9854;50.968;4.168;2022-10-26T07:47:53;13.50;;;2.38;;
19436;SDS011;9854;50.968;4.168;2022-10-26T07:50:19;5.55;;;2.13;;
19436;SDS011;9854;50.968;4.168;2022-10-26T07:52:45;6.07;;;2.17;;
19436;SDS011;9854;50.968;4.168;2022-10-26T07:55:11;11.02;;;2.15;;
19436;SDS011;9854;50.968;4.168;2022-10-26T07:57:37;3.67;;;2.17;;
19436;SDS011;9854;50.968;4.168;2022-10-26T08:00:03;5.30;;;2.63;;
19436;SDS011;9854;50.968;4.168;2022-10-26T08:02:31;8.00;;;2.38;;
19436;SDS011;9854;50.968;4.168;2022-10-26T08:04:57;6.07;;;2.38;;
19436;SDS011;9854;50.968;4.168;2022-10-26T08:07:22;10.35;;;2.33;;
19436;SDS011;9854;50.968;4.168;2022-10-26T08:09:50;6.32;;;2.33;;
19436;SDS011;9854;50.968;4.168;2022-10-26T08:12:15;6.72;;;2.60;;
19436;SDS011;9854;50.968;4.168;2022-10-26T08:14:41;7.43;;;2.38;;
19436;SDS011;9854;50.968;4.168;2022-10-26T08:17:07;6.95;;;2.58;;
19436;SDS011;9854;50.968;4.168;2022-10-26T08:19:33;4.72;;;2.47;;
19436;SDS011;9854;50.968;4.168;2022-10-26T08:21:59;7.00;;;2.35;;
19436;SDS011;9854;50.968;4.168;2022-10-26T08:24:24;7.50;;;2.35;;
19436;SDS011;9854;50.968;4.168;2022-10-26T08:26:50;7.25;;;2.40;;
19436;SDS011;9854;50.968;4.168;2022-10-26T08:29:16;14.27;;;2.53;;
19436;SDS011;9854;50.968;4.168;2022-10-26T08:31:41;5.40;;;2.47;;
19436;SDS011;9854;50.968;4.168;2022-10-26T08:34:07;8.90;;;2.33;;
19436;SDS011;9854;50.968;4.168;2022-10-26T08:36:33;7.53;;;1.98;;
19436;SDS011;9854;50.968;4.168;2022-10-26T08:38:58;8.95;;;2.30;;
19436;SDS011;9854;50.968;4.168;2022-10-26T08:43:59;9.88;;;2.63;;
19436;SDS011;9854;50.968;4.168;2022-10-26T08:46:49;7.95;;;2.38;;
19436;SDS011;9854;50.968;4.168;2022-10-26T08:49:21;11.80;;;2.88;;
19436;SDS011;9854;50.968;4.168;2022-10-26T08:51:51;5.60;;;2.20;;
19436;SDS011;9854;50.968;4.168;2022-10-26T08:54:25;6.57;;;2.00;;
19436;SDS011;9854;50.968;4.168;2022-10-26T08:57:09;8.02;;;2.35;;
19436;SDS011;9854;50.968;4.168;2022-10-26T08:59:42;11.48;;;2.30;;
19436;SDS011;9854;50.968;4.168;2022-10-26T09:02:12;8.93;;;2.17;;
19436;SDS011;9854;50.968;4.168;2022-10-26T09:04:39;8.10;;;2.35;;
19436;SDS011;9854;50.968;4.168;2022-10-26T09:10:09;5.07;;;1.90;;
19436;SDS011;9854;50.968;4.168;2022-10-26T09:12:42;7.32;;;2.30;;
19436;SDS011;9854;50.968;4.168;2022-10-26T09:15:24;6.65;;;2.70;;
19436;SDS011;9854;50.968;4.168;2022-10-26T09:18:19;5.72;;;2.15;;
19436;SDS011;9854;50.968;4.168;2022-10-26T09:21:00;8.73;;;2.25;;
19436;SDS011;9854;50.968;4.168;2022-10-26T09:26:14;10.38;;;2.20;;
19436;SDS011;9854;50.968;4.168;2022-10-26T09:28:56;9.05;;;2.20;;
19436;SDS011;9854;50.968;4.168;2022-10-26T09:31:26;8.45;;;2.40;;
19436;SDS011;9854;50.968;4.168;2022-10-26T09:33:54;5.10;;;1.83;;
19436;SDS011;9854;50.968;4.168;2022-10-26T09:36:21;11.48;;;2.42;;
19436;SDS011;9854;50.968;4.168;2022-10-26T09:44:14;8.48;;;2.22;;
19436;SDS011;9854;50.968;4.168;2022-10-26T09:46:52;9.52;;;2.00;;
19436;SDS011;9854;50.968;4.168;2022-10-26T09:49:53;14.48;;;2.35;;
19436;SDS011;9854;50.968;4.168;2022-10-26T09:52:22;9.05;;;2.17;;
19436;SDS011;9854;50.968;4.168;2022-10-26T09:54:48;6.10;;;1.77;;
19436;SDS011;9854;50.968;4.168;2022-10-26T09:57:15;5.43;;;2.10;;
19436;SDS011;9854;50.968;4.168;2022-10-26T09:59:43;6.30;;;2.03;;
19436;SDS011;9854;50.968;4.168;2022-10-26T10:02:34;12.65;;;2.05;;
19436;SDS011;9854;50.968;4.168;2022-10-26T10:05:00;12.57;;;2.33;;
19436;SDS011;9854;50.968;4.168;2022-10-26T10:07:26;8.23;;;1.90;;
19436;SDS011;9854;50.968;4.168;2022-10-26T10:10:05;5.90;;;2.03;;
19436;SDS011;9854;50.968;4.168;2022-10-26T10:12:32;4.55;;;1.75;;
19436;SDS011;9854;50.968;4.168;2022-10-26T10:14:58;2.90;;;1.60;;
19436;SDS011;9854;50.968;4.168;2022-10-26T10:17:24;5.97;;;1.85;;
19436;SDS011;9854;50.968;4.168;2022-10-26T10:19:50;6.30;;;1.95;;
19436;SDS011;9854;50.968;4.168;2022-10-26T10:22:20;7.28;;;1.50;;
19436;SDS011;9854;50.968;4.168;2022-10-26T10:24:56;5.07;;;1.55;;
19436;SDS011;9854;50.968;4.168;2022-10-26T10:27:24;10.43;;;1.83;;
19436;SDS011;9854;50.968;4.168;2022-10-26T10:29:57;10.40;;;1.33;;
19436;SDS011;9854;50.968;4.168;2022-10-26T10:32:31;8.07;;;2.28;;
19436;SDS011;9854;50.968;4.168;2022-10-26T10:35:00;5.63;;;1.67;;
19436;SDS011;9854;50.968;4.168;2022-10-26T10:37:36;5.07;;;1.70;;
19436;SDS011;9854;50.968;4.168;2022-10-26T10:40:19;11.35;;;1.92;;
19436;SDS011;9854;50.968;4.168;2022-10-26T10:42:50;4.30;;;1.60;;
19436;SDS011;9854;50.968;4.168;2022-10-26T10:45:26;8.68;;;1.63;;
19436;SDS011;9854;50.968;4.168;2022-10-26T10:47:57;6.78;;;1.30;;
19436;SDS011;9854;50.968;4.168;2022-10-26T10:50:36;20.08;;;2.55;;
19436;SDS011;9854;50.968;4.168;2022-10-26T10:53:19;5.03;;;1.35;;
19436;SDS011;9854;50.968;4.168;2022-10-26T10:56:00;4.00;;;1.20;;
19436;SDS011;9854;50.968;4.168;2022-10-26T11:01:26;5.32;;;1.88;;
19436;SDS011;9854;50.968;4.168;2022-10-26T11:06:43;3.97;;;1.55;;
19436;SDS011;9854;50.968;4.168;2022-10-26T11:09:14;5.60;;;2.00;;
19436;SDS011;9854;50.968;4.168;2022-10-26T11:11:47;6.60;;;1.58;;
19436;SDS011;9854;50.968;4.168;2022-10-26T11:19:37;8.95;;;1.90;;
19436;SDS011;9854;50.968;4.168;2022-10-26T11:22:32;7.53;;;1.60;;
19436;SDS011;9854;50.968;4.168;2022-10-26T11:25:26;12.40;;;1.90;;
19436;SDS011;9854;50.968;4.168;2022-10-26T11:30:54;5.75;;;1.40;;
19436;SDS011;9854;50.968;4.168;2022-10-26T11:33:25;4.63;;;1.45;;
19436;SDS011;9854;50.968;4.168;2022-10-26T11:35:59;5.20;;;1.70;;
19436;SDS011;9854;50.968;4.168;2022-10-26T11:38:31;7.53;;;1.63;;
19436;SDS011;9854;50.968;4.168;2022-10-26T11:41:03;5.50;;;1.58;;
19436;SDS011;9854;50.968;4.168;2022-10-26T11:43:49;4.60;;;1.67;;
19436;SDS011;9854;50.968;4.168;2022-10-26T11:46:27;6.28;;;1.50;;
19436;SDS011;9854;50.968;4.168;2022-10-26T11:51:39;5.68;;;1.60;;
19436;SDS011;9854;50.968;4.168;2022-10-26T11:54:14;7.32;;;1.60;;
19436;SDS011;9854;50.968;4.168;2022-10-26T11:56:43;7.03;;;1.58;;
19436;SDS011;9854;50.968;4.168;2022-10-26T11:59:14;7.03;;;1.70;;
19436;SDS011;9854;50.968;4.168;2022-10-26T12:01:44;4.03;;;1.58;;
19436;SDS011;9854;50.968;4.168;2022-10-26T12:04:20;9.73;;;1.73;;
19436;SDS011;9854;50.968;4.168;2022-10-26T12:06:49;5.70;;;1.50;;
19436;SDS011;9854;50.968;4.168;2022-10-26T12:09:22;5.57;;;1.40;;
19436;SDS011;9854;50.968;4.168;2022-10-26T12:12:06;5.40;;;1.58;;
19436;SDS011;9854;50.968;4.168;2022-10-26T12:14:44;8.43;;;1.40;;
19436;SDS011;9854;50.968;4.168;2022-10-26T12:17:29;5.32;;;1.77;;
19436;SDS011;9854;50.968;4.168;2022-10-26T12:20:05;7.43;;;1.30;;
19436;SDS011;9854;50.968;4.168;2022-10-26T12:22:53;7.20;;;1.80;;
19436;SDS011;9854;50.968;4.168;2022-10-26T12:25:20;6.70;;;1.65;;
19436;SDS011;9854;50.968;4.168;2022-10-26T12:48:41;8.20;;;1.20;;
19436;SDS011;9854;50.968;4.168;2022-10-26T12:59:42;3.25;;;1.55;;
19436;SDS011;9854;50.968;4.168;2022-10-26T13:02:37;5.78;;;1.20;;
19436;SDS011;9854;50.968;4.168;2022-10-26T13:06:12;10.32;;;2.13;;
19436;SDS011;9854;50.968;4.168;2022-10-26T13:08:40;9.38;;;1.65;;
19436;SDS011;9854;50.968;4.168;2022-10-26T13:11:15;7.97;;;1.17;;
19436;SDS011;9854;50.968;4.168;2022-10-26T13:13:51;8.98;;;1.40;;
19436;SDS011;9854;50.968;4.168;2022-10-26T13:16:20;4.22;;;1.35;;
19436;SDS011;9854;50.968;4.168;2022-10-26T13:18:48;5.82;;;1.52;;
19436;SDS011;9854;50.968;4.168;2022-10-26T13:21:16;3.03;;;1.10;;
19436;SDS011;9854;50.968;4.168;2022-10-26T13:26:11;3.33;;;1.20;;
19436;SDS011;9854;50.968;4.168;2022-10-26T13:31:03;4.57;;;1.40;;
19436;SDS011;9854;50.968;4.168;2022-10-26T13:33:38;4.30;;;1.30;;
19436;SDS011;9854;50.968;4.168;2022-10-26T13:36:15;6.03;;;1.40;;
19436;SDS011;9854;50.968;4.168;2022-10-26T13:38:47;5.65;;;1.50;;
19436;SDS011;9854;50.968;4.168;2022-10-26T13:41:21;7.50;;;1.38;;
19436;SDS011;9854;50.968;4.168;2022-10-26T13:43:52;5.07;;;1.58;;
19436;SDS011;9854;50.968;4.168;2022-10-26T13:46:23;4.80;;;1.27;;
19436;SDS011;9854;50.968;4.168;2022-10-26T13:48:52;6.75;;;1.55;;
19436;SDS011;9854;50.968;4.168;2022-10-26T13:51:24;4.80;;;1.15;;
19436;SDS011;9854;50.968;4.168;2022-10-26T13:54:05;3.92;;;1.10;;
19436;SDS011;9854;50.968;4.168;2022-10-26T13:56:42;7.20;;;1.40;;
19436;SDS011;9854;50.968;4.168;2022-10-26T13:59:12;5.03;;;1.40;;
19436;SDS011;9854;50.968;4.168;2022-10-26T14:01:39;8.25;;;1.33;;
19436;SDS011;9854;50.968;4.168;2022-10-26T14:04:18;2.42;;;1.00;;
19436;SDS011;9854;50.968;4.168;2022-10-26T14:06:51;3.38;;;1.35;;
19436;SDS011;9854;50.968;4.168;2022-10-26T14:09:18;5.32;;;2.00;;
19436;SDS011;9854;50.968;4.168;2022-10-26T14:11:47;5.85;;;1.48;;
19436;SDS011;9854;50.968;4.168;2022-10-26T14:14:17;3.05;;;1.00;;
19436;SDS011;9854;50.968;4.168;2022-10-26T14:16:46;4.88;;;1.13;;
19436;SDS011;9854;50.968;4.168;2022-10-26T14:19:23;4.97;;;0.98;;
19436;SDS011;9854;50.968;4.168;2022-10-26T14:21:50;6.30;;;1.27;;
19436;SDS011;9854;50.968;4.168;2022-10-26T14:24:29;6.10;;;1.45;;
19436;SDS011;9854;50.968;4.168;2022-10-26T14:26:57;4.75;;;1.55;;
19436;SDS011;9854;50.968;4.168;2022-10-26T14:29:23;6.75;;;1.65;;
19436;SDS011;9854;50.968;4.168;2022-10-26T14:31:51;10.05;;;1.90;;
19436;SDS011;9854;50.968;4.168;2022-10-26T14:34:19;11.10;;;1.58;;
19436;SDS011;9854;50.968;4.168;2022-10-26T14:36:57;6.25;;;1.30;;
19436;SDS011;9854;50.968;4.168;2022-10-26T14:39:37;4.85;;;1.30;;
19436;SDS011;9854;50.968;4.168;2022-10-26T14:42:26;9.05;;;1.52;;
19436;SDS011;9854;50.968;4.168;2022-10-26T14:44:55;4.68;;;1.00;;
19436;SDS011;9854;50.968;4.168;2022-10-26T14:47:31;8.25;;;1.30;;
19436;SDS011;9854;50.968;4.168;2022-10-26T14:49:59;4.30;;;0.88;;
19436;SDS011;9854;50.968;4.168;2022-10-26T14:52:30;7.18;;;1.60;;
19436;SDS011;9854;50.968;4.168;2022-10-26T14:54:59;8.05;;;1.25;;
19436;SDS011;9854;50.968;4.168;2022-10-26T14:57:30;6.30;;;1.05;;
19436;SDS011;9854;50.968;4.168;2022-10-26T14:59:59;8.50;;;1.40;;
19436;SDS011;9854;50.968;4.168;2022-10-26T15:02:36;4.97;;;1.20;;
19436;SDS011;9854;50.968;4.168;2022-10-26T15:05:03;3.47;;;1.13;;
19436;SDS011;9854;50.968;4.168;2022-10-26T15:07:43;10.43;;;1.45;;
19436;SDS011;9854;50.968;4.168;2022-10-26T15:15:46;10.93;;;1.42;;
19436;SDS011;9854;50.968;4.168;2022-10-26T15:18:32;7.18;;;1.23;;
19436;SDS011;9854;50.968;4.168;2022-10-26T15:21:00;3.00;;;1.00;;
19436;SDS011;9854;50.968;4.168;2022-10-26T15:23:26;10.02;;;1.20;;
19436;SDS011;9854;50.968;4.168;2022-10-26T15:25:57;8.68;;;1.40;;
19436;SDS011;9854;50.968;4.168;2022-10-26T15:28:29;3.03;;;1.05;;
19436;SDS011;9854;50.968;4.168;2022-10-26T15:31:01;6.90;;;1.33;;
19436;SDS011;9854;50.968;4.168;2022-10-26T15:33:29;4.05;;;1.00;;
19436;SDS011;9854;50.968;4.168;2022-10-26T15:36:15;7.05;;;1.40;;
19436;SDS011;9854;50.968;4.168;2022-10-26T15:38:41;7.93;;;1.25;;
19436;SDS011;9854;50.968;4.168;2022-10-26T15:41:15;5.63;;;1.20;;
19436;SDS011;9854;50.968;4.168;2022-10-26T15:43:46;8.50;;;1.73;;
19436;SDS011;9854;50.968;4.168;2022-10-26T15:46:14;9.35;;;1.38;;
19436;SDS011;9854;50.968;4.168;2022-10-26T15:48:40;5.30;;;1.20;;
19436;SDS011;9854;50.968;4.168;2022-10-26T15:51:09;2.67;;;0.80;;
19436;SDS011;9854;50.968;4.168;2022-10-26T15:53:37;7.20;;;1.27;;
19436;SDS011;9854;50.968;4.168;2022-10-26T15:56:03;15.50;;;1.30;;
19436;SDS011;9854;50.968;4.168;2022-10-26T15:58:36;5.28;;;1.30;;
19436;SDS011;9854;50.968;4.168;2022-10-26T16:01:02;7.22;;;1.50;;
19436;SDS011;9854;50.968;4.168;2022-10-26T16:03:27;7.30;;;1.85;;
19436;SDS011;9854;50.968;4.168;2022-10-26T16:05:57;7.32;;;1.35;;
19436;SDS011;9854;50.968;4.168;2022-10-26T16:08:25;7.55;;;1.40;;
19436;SDS011;9854;50.968;4.168;2022-10-26T16:10:53;6.00;;;2.13;;
19436;SDS011;9854;50.968;4.168;2022-10-26T16:13:19;8.25;;;1.58;;
19436;SDS011;9854;50.968;4.168;2022-10-26T16:15:45;3.75;;;1.15;;
19436;SDS011;9854;50.968;4.168;2022-10-26T16:18:11;7.35;;;1.50;;
19436;SDS011;9854;50.968;4.168;2022-10-26T16:20:37;6.40;;;1.17;;
19436;SDS011;9854;50.968;4.168;2022-10-26T16:23:02;7.65;;;1.50;;
19436;SDS011;9854;50.968;4.168;2022-10-26T16:25:31;5.50;;;1.10;;
19436;SDS011;9854;50.968;4.168;2022-10-26T16:27:59;7.97;;;1.60;;
19436;SDS011;9854;50.968;4.168;2022-10-26T16:30:27;5.53;;;1.20;;
19436;SDS011;9854;50.968;4.168;2022-10-26T16:32:54;4.13;;;1.02;;
19436;SDS011;9854;50.968;4.168;2022-10-26T16:35:19;6.15;;;1.60;;
19436;SDS011;9854;50.968;4.168;2022-10-26T16:37:45;7.65;;;1.15;;
19436;SDS011;9854;50.968;4.168;2022-10-26T16:40:10;10.02;;;1.55;;
19436;SDS011;9854;50.968;4.168;2022-10-26T16:42:36;6.70;;;1.23;;
19436;SDS011;9854;50.968;4.168;2022-10-26T16:45:02;5.32;;;1.38;;
19436;SDS011;9854;50.968;4.168;2022-10-26T16:47:29;6.30;;;1.52;;
19436;SDS011;9854;50.968;4.168;2022-10-26T16:49:59;6.85;;;1.20;;
19436;SDS011;9854;50.968;4.168;2022-10-26T16:52:24;4.47;;;1.35;;
19436;SDS011;9854;50.968;4.168;2022-10-26T16:54:50;8.18;;;1.58;;
19436;SDS011;9854;50.968;4.168;2022-10-26T16:57:15;10.95;;;1.08;;
19436;SDS011;9854;50.968;4.168;2022-10-26T16:59:41;9.70;;;1.75;;
19436;SDS011;9854;50.968;4.168;2022-10-26T17:02:07;4.55;;;1.13;;
19436;SDS011;9854;50.968;4.168;2022-10-26T17:04:34;6.93;;;1.35;;
19436;SDS011;9854;50.968;4.168;2022-10-26T17:06:59;5.88;;;1.73;;
19436;SDS011;9854;50.968;4.168;2022-10-26T17:09:25;6.43;;;1.58;;
19436;SDS011;9854;50.968;4.168;2022-10-26T17:11:51;4.40;;;1.50;;